createdAt,value
2023-02-28T00:00:11.165Z,8.63
2023-02-28T00:02:39.596Z,7.43
2023-02-28T00:05:07.678Z,6.83
2023-02-28T00:07:35.221Z,6.57
2023-02-28T00:10:02.720Z,10.50
2023-02-28T00:12:30.294Z,7.70
2023-02-28T00:14:57.765Z,7.70
2023-02-28T00:17:25.337Z,7.90
2023-02-28T00:19:53.291Z,9.47
2023-02-28T00:22:22.256Z,14.70
2023-02-28T00:24:49.796Z,8.30
2023-02-28T00:27:17.300Z,7.77
2023-02-28T00:29:44.780Z,8.23
2023-02-28T00:32:12.330Z,9.93
2023-02-28T00:34:39.909Z,11.20
2023-02-28T00:37:08.539Z,8.87
2023-02-28T00:39:36.656Z,10.07
2023-02-28T00:42:04.821Z,10.20
2023-02-28T00:44:32.800Z,9.37
2023-02-28T00:47:00.878Z,10.00
2023-02-28T00:49:28.806Z,11.47
2023-02-28T00:51:56.796Z,9.93
2023-02-28T00:54:24.783Z,7.50
2023-02-28T00:56:52.337Z,8.30
2023-02-28T00:59:19.958Z,8.43
2023-02-28T01:01:47.924Z,8.00
2023-02-28T01:04:15.977Z,7.37
2023-02-28T01:06:43.944Z,8.63
2023-02-28T01:09:12.012Z,9.87
2023-02-28T01:11:39.686Z,6.43
2023-02-28T01:14:07.165Z,6.30
2023-02-28T01:16:34.854Z,8.00
2023-02-28T01:19:02.384Z,7.90
2023-02-28T01:21:30.163Z,6.80
2023-02-28T01:23:58.543Z,2.87
2023-02-28T01:26:26.445Z,6.67
2023-02-28T01:28:54.364Z,8.77
2023-02-28T01:31:22.657Z,6.73
2023-02-28T01:33:50.474Z,6.17
2023-02-28T01:36:19.455Z,4.33
2023-02-28T01:38:47.099Z,6.73
2023-02-28T01:41:17.937Z,9.17
2023-02-28T01:43:45.473Z,4.60
2023-02-28T01:46:13.133Z,11.90
2023-02-28T01:48:44.309Z,5.63
2023-02-28T01:51:19.127Z,7.77
2023-02-28T01:53:49.156Z,8.40
2023-02-28T01:56:19.595Z,7.90
2023-02-28T01:58:47.353Z,6.30
2023-02-28T02:01:14.891Z,4.47
2023-02-28T02:03:42.544Z,10.47
2023-02-28T02:06:10.053Z,12.90
2023-02-28T02:08:38.274Z,8.23
2023-02-28T02:11:07.479Z,6.63
2023-02-28T02:13:38.055Z,8.50
2023-02-28T02:16:23.875Z,10.23
2023-02-28T02:19:03.448Z,3.97
2023-02-28T02:21:31.277Z,5.53
2023-02-28T02:23:58.927Z,6.70
2023-02-28T02:26:45.786Z,7.13
2023-02-28T02:29:13.302Z,9.87
2023-02-28T02:31:43.940Z,5.63
2023-02-28T02:34:11.511Z,4.37
2023-02-28T02:36:47.531Z,7.97
2023-02-28T02:39:15.055Z,7.47
2023-02-28T02:41:45.842Z,4.10
2023-02-28T02:44:32.101Z,9.23
2023-02-28T02:47:11.447Z,5.93
2023-02-28T02:49:40.641Z,2.50
2023-02-28T02:52:09.778Z,6.00
2023-02-28T02:54:38.882Z,7.13
2023-02-28T02:57:12.065Z,8.10
2023-02-28T02:59:41.455Z,5.93
2023-02-28T03:02:11.823Z,6.47
2023-02-28T03:04:45.068Z,6.27
2023-02-28T03:07:12.610Z,9.53
2023-02-28T03:09:40.103Z,8.70
2023-02-28T03:12:11.245Z,6.37
2023-02-28T03:14:58.421Z,7.40
2023-02-28T03:17:44.419Z,8.17
2023-02-28T03:20:27.441Z,5.37
2023-02-28T03:23:05.642Z,9.23
2023-02-28T03:25:51.632Z,9.57
2023-02-28T03:28:37.859Z,7.83
2023-02-28T03:31:11.870Z,11.60
2023-02-28T03:34:05.860Z,9.33
2023-02-28T03:36:41.174Z,10.00
2023-02-28T03:39:10.760Z,6.77
2023-02-28T03:41:41.943Z,10.73
2023-02-28T03:44:17.697Z,9.30
2023-02-28T03:47:14.681Z,5.40
2023-02-28T03:49:44.502Z,10.43
2023-02-28T03:52:12.071Z,8.27
2023-02-28T03:54:43.416Z,8.03
2023-02-28T03:57:17.072Z,5.17
2023-02-28T04:00:05.987Z,7.93
2023-02-28T04:02:33.931Z,8.07
2023-02-28T04:05:01.933Z,5.37
2023-02-28T04:07:32.542Z,5.77
2023-02-28T04:10:00.630Z,6.10
2023-02-28T04:12:28.259Z,6.40
2023-02-28T04:14:55.810Z,9.63
2023-02-28T04:17:23.277Z,3.87
2023-02-28T04:19:50.797Z,3.87
2023-02-28T04:22:18.292Z,5.47
2023-02-28T04:24:45.899Z,3.93
2023-02-28T04:27:13.435Z,4.20
2023-02-28T04:29:40.960Z,6.67
2023-02-28T04:32:08.701Z,6.83
2023-02-28T04:34:36.268Z,4.00
2023-02-28T04:37:13.226Z,7.00
2023-02-28T04:39:42.176Z,5.20
2023-02-28T04:42:10.147Z,4.43
2023-02-28T04:44:37.683Z,5.13
2023-02-28T04:47:05.206Z,2.70
2023-02-28T04:49:32.745Z,7.43
2023-02-28T04:52:00.270Z,2.23
2023-02-28T04:54:27.864Z,5.57
2023-02-28T04:56:55.341Z,6.20
2023-02-28T04:59:22.999Z,3.97
2023-02-28T05:01:50.858Z,3.27
2023-02-28T05:04:18.701Z,4.63
2023-02-28T05:06:46.312Z,2.70
2023-02-28T05:09:13.814Z,3.33
2023-02-28T05:11:41.440Z,3.27
2023-02-28T05:14:12.303Z,4.63
2023-02-28T05:16:40.155Z,3.70
2023-02-28T05:19:07.869Z,3.30
2023-02-28T05:21:36.535Z,2.03
2023-02-28T05:24:05.954Z,3.80
2023-02-28T05:26:36.102Z,8.50
2023-02-28T05:29:03.781Z,5.27
2023-02-28T05:31:31.721Z,2.13
2023-02-28T05:33:59.396Z,4.40
2023-02-28T05:36:27.174Z,2.93
2023-02-28T05:38:54.728Z,3.70
2023-02-28T05:41:22.657Z,4.93
2023-02-28T05:43:50.521Z,2.87
2023-02-28T05:46:18.040Z,5.80
2023-02-28T05:48:47.657Z,5.30
2023-02-28T05:51:15.184Z,3.70
2023-02-28T05:53:42.653Z,2.30
2023-02-28T05:56:10.230Z,4.80
2023-02-28T05:58:37.775Z,3.17
2023-02-28T06:01:23.760Z,2.93
2023-02-28T06:03:51.663Z,3.77
2023-02-28T06:06:19.135Z,2.83
2023-02-28T06:08:46.811Z,5.40
2023-02-28T06:11:14.378Z,2.57
2023-02-28T06:13:42.005Z,2.60
2023-02-28T06:16:11.957Z,2.63
2023-02-28T06:18:39.809Z,4.60
2023-02-28T06:21:07.342Z,3.50
2023-02-28T06:23:34.902Z,4.40
2023-02-28T06:26:02.473Z,6.30
2023-02-28T06:28:30.071Z,2.97
2023-02-28T06:30:57.575Z,2.87
2023-02-28T06:33:25.186Z,4.00
2023-02-28T06:35:53.022Z,3.93
2023-02-28T06:38:20.649Z,6.23
2023-02-28T06:40:54.596Z,5.30
2023-02-28T06:43:22.477Z,4.83
2023-02-28T06:45:50.128Z,3.17
2023-02-28T06:48:17.913Z,3.07
2023-02-28T06:50:45.521Z,3.03
2023-02-28T06:53:13.079Z,4.73
2023-02-28T06:55:41.148Z,10.17
2023-02-28T06:58:08.705Z,5.77
2023-02-28T07:00:36.192Z,3.37
2023-02-28T07:03:03.813Z,3.27
2023-02-28T07:05:31.314Z,9.47
2023-02-28T07:07:58.904Z,9.83
2023-02-28T07:10:26.571Z,11.10
2023-02-28T07:12:54.119Z,5.90
2023-02-28T07:15:21.681Z,6.33
2023-02-28T07:17:49.276Z,3.47
2023-02-28T07:20:16.888Z,4.43
2023-02-28T07:22:44.398Z,2.90
2023-02-28T07:25:11.874Z,5.17
2023-02-28T07:27:39.362Z,4.43
2023-02-28T07:30:07.209Z,3.13
2023-02-28T07:32:34.762Z,7.57
2023-02-28T07:35:02.338Z,5.57
2023-02-28T07:37:29.837Z,8.07
2023-02-28T07:39:57.317Z,5.90
2023-02-28T07:42:24.983Z,3.57
2023-02-28T07:44:52.543Z,5.37
2023-02-28T07:47:20.186Z,4.37
2023-02-28T07:49:47.664Z,3.00
2023-02-28T07:52:15.184Z,4.77
2023-02-28T07:54:42.639Z,2.30
2023-02-28T07:57:10.205Z,6.47
2023-02-28T07:59:37.702Z,3.87
2023-02-28T08:02:05.302Z,2.80
2023-02-28T08:04:35.904Z,2.23
2023-02-28T08:07:03.457Z,5.40
2023-02-28T08:09:31.010Z,2.97
2023-02-28T08:11:58.549Z,6.20
2023-02-28T08:14:26.107Z,2.77
2023-02-28T08:16:53.679Z,2.43
2023-02-28T08:19:21.225Z,3.10
2023-02-28T08:21:48.835Z,2.90
2023-02-28T08:24:16.401Z,2.27
2023-02-28T08:26:43.954Z,3.07
2023-02-28T08:29:11.487Z,3.23
2023-02-28T08:31:39.217Z,3.43
2023-02-28T08:34:14.342Z,2.53
2023-02-28T08:36:42.097Z,2.77
2023-02-28T08:39:09.672Z,3.47
2023-02-28T08:41:37.361Z,3.43
2023-02-28T08:44:05.053Z,3.03
2023-02-28T08:46:32.586Z,1.87
2023-02-28T08:49:00.111Z,3.53
2023-02-28T08:51:28.573Z,3.67
2023-02-28T08:54:02.597Z,5.23
2023-02-28T08:56:30.419Z,3.03
2023-02-28T08:58:58.581Z,2.03
2023-02-28T09:01:27.838Z,2.17
2023-02-28T09:06:25.701Z,3.40
2023-02-28T09:08:53.568Z,2.30
2023-02-28T09:11:21.144Z,3.03
2023-02-28T09:13:48.672Z,3.73
2023-02-28T09:16:17.294Z,3.03
2023-02-28T09:18:45.325Z,2.33
2023-02-28T09:21:13.981Z,2.23
2023-02-28T09:23:42.436Z,3.20
2023-02-28T09:26:14.298Z,3.63
2023-02-28T09:28:41.851Z,2.13
2023-02-28T09:31:13.433Z,1.83
2023-02-28T09:33:40.969Z,1.90
2023-02-28T09:36:08.636Z,3.90
2023-02-28T09:38:38.360Z,4.63
2023-02-28T09:41:11.905Z,4.13
2023-02-28T09:43:42.495Z,3.00
2023-02-28T09:46:23.830Z,5.90
2023-02-28T09:48:52.411Z,2.67
2023-02-28T09:51:20.034Z,3.10
2023-02-28T09:53:50.472Z,3.70
2023-02-28T09:56:27.161Z,2.13
2023-02-28T09:59:03.941Z,2.50
2023-02-28T10:01:44.567Z,1.70
2023-02-28T10:04:30.617Z,2.07
2023-02-28T10:06:58.515Z,2.63
2023-02-28T10:09:27.777Z,1.63
2023-02-28T10:11:58.999Z,2.43
2023-02-28T10:14:29.405Z,2.03
2023-02-28T10:16:59.682Z,2.00
2023-02-28T10:19:29.642Z,2.50
2023-02-28T10:22:01.646Z,3.30
2023-02-28T10:24:34.982Z,2.27
2023-02-28T10:27:09.127Z,4.50
2023-02-28T10:29:36.731Z,4.93
2023-02-28T10:32:05.362Z,2.00
2023-02-28T10:34:33.013Z,1.73
2023-02-28T10:37:00.792Z,2.47
2023-02-28T10:39:37.562Z,3.17
2023-02-28T10:42:05.650Z,2.87
2023-02-28T10:44:33.271Z,1.93
2023-02-28T10:47:01.370Z,3.40
2023-02-28T10:49:29.436Z,2.20
2023-02-28T10:51:58.799Z,2.27
2023-02-28T10:54:36.726Z,2.20
2023-02-28T10:57:23.979Z,2.70
2023-02-28T11:00:07.345Z,2.20
2023-02-28T11:05:02.447Z,2.20
2023-02-28T11:07:37.303Z,2.13
2023-02-28T11:10:09.215Z,2.00
2023-02-28T11:12:47.306Z,1.93
2023-02-28T11:15:27.656Z,1.60
2023-02-28T11:18:00.515Z,2.27
2023-02-28T11:20:29.984Z,2.20
2023-02-28T11:22:58.838Z,1.87
2023-02-28T11:25:29.381Z,1.40
2023-02-28T11:28:00.644Z,2.23
2023-02-28T11:30:29.684Z,1.53
2023-02-28T11:32:57.241Z,3.23
2023-02-28T11:35:40.023Z,3.67
2023-02-28T11:38:11.674Z,3.60
2023-02-28T11:40:48.584Z,3.67
2023-02-28T11:43:16.089Z,3.17
2023-02-28T11:45:50.380Z,2.07
2023-02-28T11:48:23.338Z,3.03
2023-02-28T11:51:00.014Z,2.20
2023-02-28T11:53:30.426Z,2.83
2023-02-28T11:56:05.018Z,4.93
2023-02-28T11:58:35.740Z,4.53
2023-02-28T12:01:22.151Z,1.83
2023-02-28T12:03:52.637Z,3.43
2023-02-28T12:06:24.367Z,2.60
2023-02-28T12:09:13.760Z,4.60
2023-02-28T12:11:56.654Z,5.90
2023-02-28T12:14:36.221Z,3.73
2023-02-28T12:17:18.985Z,2.40
2023-02-28T12:19:52.695Z,2.90
2023-02-28T12:22:23.127Z,7.53
2023-02-28T12:25:02.453Z,5.10
2023-02-28T12:27:32.396Z,3.50
2023-02-28T12:30:02.624Z,2.00
2023-02-28T12:32:35.568Z,2.23
2023-02-28T12:35:06.253Z,2.87
2023-02-28T12:37:38.112Z,2.47
2023-02-28T12:40:08.744Z,1.80
2023-02-28T12:42:41.705Z,2.37
2023-02-28T12:45:15.137Z,2.30
2023-02-28T12:47:44.300Z,2.00
2023-02-28T12:50:12.718Z,1.80
2023-02-28T12:52:49.494Z,2.00
2023-02-28T12:55:21.527Z,4.27
2023-02-28T12:57:51.752Z,2.30
2023-02-28T13:00:20.662Z,2.60
2023-02-28T13:02:51.162Z,3.20
2023-02-28T13:05:18.715Z,3.33
2023-02-28T13:08:04.672Z,1.60
2023-02-28T13:10:45.700Z,2.50
2023-02-28T13:13:23.961Z,2.27
2023-02-28T13:16:11.799Z,3.37
2023-02-28T13:18:46.330Z,1.67
2023-02-28T13:21:28.478Z,4.17
2023-02-28T13:24:05.925Z,2.17
2023-02-28T13:26:39.538Z,2.20
2023-02-28T13:29:12.726Z,1.90
2023-02-28T13:32:03.668Z,1.83
2023-02-28T13:34:31.786Z,2.57
2023-02-28T13:37:31.738Z,2.60
2023-02-28T13:40:00.521Z,3.07
2023-02-28T13:42:38.472Z,4.93
2023-02-28T13:45:06.134Z,2.57
2023-02-28T13:47:33.619Z,3.13
2023-02-28T13:50:17.724Z,2.53
2023-02-28T13:53:04.202Z,2.43
2023-02-28T13:55:36.921Z,5.47
2023-02-28T13:58:11.612Z,2.10
2023-02-28T14:00:54.726Z,6.03
2023-02-28T14:03:34.639Z,3.17
2023-02-28T14:06:20.758Z,3.70
2023-02-28T14:09:02.254Z,2.30
2023-02-28T14:11:37.558Z,1.70
2023-02-28T14:14:05.800Z,1.93
2023-02-28T14:16:45.726Z,3.33
2023-02-28T14:19:21.001Z,2.70
2023-02-28T14:22:00.653Z,3.43
2023-02-28T14:24:43.356Z,2.53
2023-02-28T14:27:20.969Z,3.63
2023-02-28T14:29:51.291Z,2.93
2023-02-28T14:32:36.725Z,3.73
2023-02-28T14:35:14.752Z,2.97
2023-02-28T14:37:43.599Z,4.03
2023-02-28T14:40:17.052Z,3.87
2023-02-28T14:42:48.634Z,2.67
2023-02-28T14:45:20.295Z,3.57
2023-02-28T14:47:48.239Z,2.10
2023-02-28T14:50:23.857Z,2.47
2023-02-28T14:52:54.702Z,3.23
2023-02-28T14:55:25.726Z,2.07
2023-02-28T14:57:57.953Z,1.80
2023-02-28T15:00:27.404Z,2.47
2023-02-28T15:02:55.993Z,2.13
2023-02-28T15:05:28.701Z,3.43
2023-02-28T15:08:03.887Z,2.60
2023-02-28T15:10:31.618Z,2.33
2023-02-28T15:13:00.552Z,2.33
2023-02-28T15:16:00.895Z,2.77
2023-02-28T15:18:32.901Z,2.33
2023-02-28T15:21:03.797Z,2.73
2023-02-28T15:23:32.674Z,4.23
2023-02-28T15:26:00.728Z,5.00
2023-02-28T15:28:32.145Z,3.83
2023-02-28T15:31:03.994Z,2.20
2023-02-28T15:33:33.180Z,3.90
2023-02-28T15:36:18.245Z,2.20
2023-02-28T15:38:45.821Z,4.33
2023-02-28T15:41:23.972Z,4.20
2023-02-28T15:44:11.513Z,3.17
2023-02-28T15:46:46.797Z,3.07
2023-02-28T15:49:20.433Z,3.93
2023-02-28T15:51:48.209Z,2.90
2023-02-28T15:54:28.460Z,4.13
2023-02-28T15:57:02.586Z,4.70
2023-02-28T15:59:31.341Z,2.60
2023-02-28T16:02:11.076Z,3.17
2023-02-28T16:04:39.144Z,3.47
2023-02-28T16:07:07.189Z,3.07
2023-02-28T16:09:35.417Z,3.27
2023-02-28T16:12:03.850Z,2.50
2023-02-28T16:14:31.957Z,2.10
2023-02-28T16:17:06.816Z,2.60
2023-02-28T16:19:37.396Z,2.77
2023-02-28T16:22:05.015Z,5.10
2023-02-28T16:24:32.552Z,4.17
2023-02-28T16:27:00.211Z,2.60
2023-02-28T16:29:30.145Z,3.30
2023-02-28T16:31:57.698Z,2.83
2023-02-28T16:34:25.755Z,3.17
2023-02-28T16:36:53.549Z,3.43
2023-02-28T16:39:21.140Z,4.33
2023-02-28T16:41:49.098Z,3.63
2023-02-28T16:44:28.278Z,4.57
2023-02-28T16:46:55.993Z,3.30
2023-02-28T16:49:23.634Z,2.87
2023-02-28T16:51:51.369Z,3.17
2023-02-28T16:54:18.840Z,4.70
2023-02-28T16:56:47.602Z,2.83
2023-02-28T16:59:23.495Z,4.57
2023-02-28T17:01:51.254Z,3.70
2023-02-28T17:04:19.239Z,5.57
2023-02-28T17:06:46.958Z,4.00
2023-02-28T17:09:20.009Z,4.47
2023-02-28T17:11:47.671Z,3.33
2023-02-28T17:14:18.170Z,4.07
2023-02-28T17:16:45.817Z,3.03
2023-02-28T17:19:14.708Z,8.60
2023-02-28T17:21:45.702Z,3.03
2023-02-28T17:24:16.458Z,3.10
2023-02-28T17:26:46.792Z,4.50
2023-02-28T17:29:21.720Z,6.73
2023-02-28T17:31:49.901Z,4.57
2023-02-28T17:34:17.590Z,2.93
2023-02-28T17:36:46.304Z,3.63
2023-02-28T17:39:14.731Z,3.83
2023-02-28T17:41:43.326Z,5.80
2023-02-28T17:44:13.595Z,4.90
2023-02-28T17:46:42.093Z,5.00
2023-02-28T17:49:10.749Z,5.00
2023-02-28T17:51:38.464Z,5.70
2023-02-28T17:54:06.050Z,3.70
2023-02-28T17:56:33.663Z,4.83
2023-02-28T17:59:01.477Z,4.47
2023-02-28T18:01:30.555Z,4.87
2023-02-28T18:03:58.240Z,7.30
2023-02-28T18:06:32.037Z,4.90
2023-02-28T18:08:59.928Z,4.40
2023-02-28T18:11:27.671Z,6.43
2023-02-28T18:13:55.726Z,7.33
2023-02-28T18:16:24.011Z,4.33
2023-02-28T18:18:51.578Z,4.63
2023-02-28T18:21:19.230Z,5.50
2023-02-28T18:23:47.042Z,5.80
2023-02-28T18:26:18.367Z,5.00
2023-02-28T18:28:46.052Z,7.50
2023-02-28T18:31:15.386Z,5.27
2023-02-28T18:33:43.731Z,3.43
2023-02-28T18:36:11.397Z,11.97
2023-02-28T18:38:39.692Z,5.33
2023-02-28T18:41:07.587Z,5.10
2023-02-28T18:43:36.781Z,3.83
2023-02-28T18:46:05.066Z,7.23
2023-02-28T18:48:32.749Z,11.23
2023-02-28T18:51:00.423Z,8.87
2023-02-28T18:53:28.046Z,6.00
2023-02-28T18:56:00.544Z,7.87
2023-02-28T18:58:28.151Z,6.97
2023-02-28T19:00:55.992Z,8.10
2023-02-28T19:03:23.499Z,5.80
2023-02-28T19:05:54.574Z,8.27
2023-02-28T19:08:22.178Z,7.23
2023-02-28T19:10:49.990Z,6.13
2023-02-28T19:13:17.992Z,6.17
2023-02-28T19:15:45.610Z,7.33
2023-02-28T19:18:13.263Z,6.27
2023-02-28T19:20:40.880Z,7.60
2023-02-28T19:23:08.468Z,7.03
2023-02-28T19:25:36.149Z,5.77
2023-02-28T19:28:05.954Z,5.30
2023-02-28T19:30:33.492Z,7.43
2023-02-28T19:33:01.111Z,8.03
2023-02-28T19:35:31.497Z,5.97
2023-02-28T19:37:59.940Z,7.30
2023-02-28T19:40:27.565Z,5.20
2023-02-28T19:42:55.162Z,6.80
2023-02-28T19:45:22.726Z,6.90
2023-02-28T19:47:50.429Z,5.37
2023-02-28T19:50:17.983Z,7.27
2023-02-28T19:52:45.611Z,7.37
2023-02-28T19:55:13.195Z,4.23
2023-02-28T19:57:40.736Z,5.77
2023-02-28T20:00:09.094Z,7.43
2023-02-28T20:02:37.826Z,7.50
2023-02-28T20:05:05.538Z,4.90
2023-02-28T20:07:33.117Z,6.20
2023-02-28T20:10:00.654Z,5.43
2023-02-28T20:12:28.244Z,10.27
2023-02-28T20:14:55.792Z,11.07
2023-02-28T20:17:23.544Z,6.87
2023-02-28T20:19:51.058Z,10.70
2023-02-28T20:22:18.724Z,6.17
2023-02-28T20:24:47.202Z,11.87
2023-02-28T20:27:14.867Z,9.20
2023-02-28T20:29:42.498Z,6.50
2023-02-28T20:32:10.136Z,8.67
2023-02-28T20:34:37.676Z,8.20
2023-02-28T20:37:05.287Z,11.10
2023-02-28T20:39:32.833Z,9.50
2023-02-28T20:42:00.526Z,8.30
2023-02-28T20:44:28.031Z,10.03
2023-02-28T20:46:55.614Z,5.17
2023-02-28T20:49:23.252Z,11.23
2023-02-28T20:51:50.939Z,7.53
2023-02-28T20:54:18.466Z,7.37
2023-02-28T20:56:46.137Z,7.23
2023-02-28T20:59:13.848Z,6.10
2023-02-28T21:01:41.595Z,11.53
2023-02-28T21:04:09.543Z,8.67
2023-02-28T21:06:38.465Z,5.97
2023-02-28T21:09:06.859Z,7.50
2023-02-28T21:11:35.450Z,6.83
2023-02-28T21:14:04.620Z,7.30
2023-02-28T21:16:32.743Z,8.87
2023-02-28T21:19:00.335Z,8.70
2023-02-28T21:21:29.061Z,6.67
2023-02-28T21:23:56.615Z,10.07
2023-02-28T21:26:24.922Z,10.20
2023-02-28T21:28:53.787Z,10.17
2023-02-28T21:31:22.121Z,7.73
2023-02-28T21:33:49.953Z,4.67
2023-02-28T21:36:18.903Z,7.60
2023-02-28T21:38:47.465Z,7.00
2023-02-28T21:41:16.279Z,11.00
2023-02-28T21:43:44.151Z,7.87
2023-02-28T21:46:13.198Z,9.67
2023-02-28T21:48:41.220Z,9.57
2023-02-28T21:51:11.630Z,9.53
2023-02-28T21:53:39.752Z,10.93
2023-02-28T21:56:08.869Z,10.97
2023-02-28T21:58:36.468Z,8.60
2023-02-28T22:01:04.942Z,12.43
2023-02-28T22:03:32.545Z,11.37
2023-02-28T22:06:00.101Z,11.17
2023-02-28T22:08:27.938Z,15.00
2023-02-28T22:10:55.409Z,10.40
2023-02-28T22:13:23.049Z,8.43
2023-02-28T22:15:50.590Z,13.20
2023-02-28T22:18:18.162Z,8.53
2023-02-28T22:20:45.671Z,8.40
2023-02-28T22:23:13.203Z,10.30
2023-02-28T22:25:40.689Z,10.03
2023-02-28T22:28:08.229Z,9.43
2023-02-28T22:30:35.841Z,10.37
2023-02-28T22:33:03.628Z,8.03
2023-02-28T22:35:32.954Z,11.73
2023-02-28T22:38:01.042Z,13.10
2023-02-28T22:40:34.801Z,16.43
2023-02-28T22:43:03.435Z,12.07
2023-02-28T22:45:43.505Z,12.03
2023-02-28T22:48:20.721Z,9.67
2023-02-28T22:50:50.272Z,10.30
2023-02-28T22:53:18.063Z,7.23
2023-02-28T22:55:46.286Z,12.10
2023-02-28T22:58:14.306Z,9.53
2023-02-28T23:00:42.206Z,13.27
2023-02-28T23:03:09.671Z,13.90
2023-02-28T23:05:37.265Z,10.33
2023-02-28T23:08:04.829Z,10.43
2023-02-28T23:10:32.354Z,11.10
2023-02-28T23:12:59.919Z,6.00
2023-02-28T23:15:27.623Z,8.80
2023-02-28T23:17:55.147Z,8.00
2023-02-28T23:20:22.666Z,10.03
2023-02-28T23:22:50.184Z,9.80
2023-02-28T23:25:18.933Z,10.63
2023-02-28T23:27:46.629Z,9.03
2023-02-28T23:30:15.013Z,9.27
2023-02-28T23:32:42.554Z,6.80
2023-02-28T23:35:10.831Z,10.23
2023-02-28T23:37:39.174Z,11.70
2023-02-28T23:40:07.911Z,10.27
2023-02-28T23:42:35.871Z,8.77
2023-02-28T23:45:04.143Z,9.27
2023-02-28T23:47:31.623Z,10.10
2023-02-28T23:49:59.138Z,13.23
2023-02-28T23:52:26.697Z,10.53
2023-02-28T23:54:54.224Z,8.30
2023-02-28T23:57:21.762Z,10.97
2023-02-28T23:59:49.311Z,9.63
